Pagina principale
METAR-TAF:

METAR-TAF

Aeroporti :

Aeroporto di Roma-Fiumicino

Roma-Fiumicino, Italia

latitudine: 41-48N, longitudine: 012-14E, altezza: 2 m

Osservazione

Il bollettino è stato emesso 19 minuti fa, alle 23:50 UTC
Vento 4 kt da est/nord-est
Temperature 15°C
Umidità 88%
Pressione 1013 hPa
Visibilità 10 km o più
nessuna nube inferiore a 1500 m e nessun cumulonembo

METAR: LIRF 152350Z 07004KT CAVOK 15/13 Q1013 NOSIG

Ora: 02:09 (00:09 UTC)

Previsione

Il bollettino è stato emesso 1 ora e 9 minuti fa, alle 23:00 UTC
Previsione valida dal 16 alle 00 UTC al 17 alle 06 UTC
Vento 5 kt da direzioni variabili
Visibilità 10 km o più
Nubi sparse ad un'altezza di 3000 ft
Evoluzione graduale
dal 16 alle 05 UTC al 16 alle 07 UTC
Vento 14 kt da sud/sud-est

TAF: LIRF 152300Z 1600/1706 VRB05KT 9999 SCT030 BECMG 1605/1607 16014KT

Osservazioni e previsioni meteorologiche di più di 4000 aeroporti (messaggi METAR e TAF).

Le stazioni disponibili sono rappresentate dai dischi gialli e rossi sulla carta.

Puntare il mouse per vedere il nome della stazione.

Clicca sopra per visualizzare le osservazioni e previsioni meteorologiche.

Per cambiare la mappa : fare clic sui pulsanti verdi con una croce nera per ingrandire, il pulsante verde con un trattino per diminuire, o sulla freccia verde per le mappe adiacenti.


METAR-TAF: